Hill Air Force Base
KHIF : now visible

Airfield :











YOU CAN JOIN US ON...

 
LOGIN :

Register | Disclaimer

   EN    FR    IT 

 









Legend :    VFR   Marginal VFR   IFR   Intensive IFR   Very Intensive IFR
Visi :
Ceiling :
>= 8 km
>= 3000ft
5 to 8 km
1000 to 3000 ft
1500m to 5 km
500 to 1000 ft
800 to 1500m
200 to 500 ft
< 800m
< 200 ft
Symbols :   Thunderstorms  Fog  Heavy snow  Heavy precipitations  Wind > 20 kt






- Airport Elevation : 4789 ft


KHIF - Hill Air Force Base

CURRENT METAR :
  • 221258Z AUTO 06013G18KT 10SM SCT110 06/M07 A3008 RMK AO2 SLP160 T00551070

EXPIRED METARs :
  • 221158Z AUTO 06008KT 10SM BKN100 BKN120 05/M07 A3007 RMK AO2 SLP160 T00541075 10089 20051 50000
  • 221058Z AUTO 06012KT 10SM SCT130 06/M07 A3008 RMK AO2 SLP160 T00551070

TAF TAF KHIF
Valid from the 22 at 13:00 until the 23 at 19:00 UTC


221300Z 2213/2319 08012G18KT 9999 SKC QNH3008INS
BECMG 2217/2218 27009KT 9999 FEW070 SCT150 QNH3005INS
BECMG 2221/2222 30012G25KT 9999 FEW070 BKN120 QNH3004INS
BECMG 2307/2308 11012KT 9999 SCT040 QNH3012INS TX18/2221Z TN05/2213Z
KZLC FIR / North America



MET'MAP, your aeronautical weather chart ! - Copyright ORBIFLY December 2007 - Disclaimer

ORBIFLY MET'MAP TEAM :

Programming & Development : Alexandra Zaïnal
Original concept : Baudouin d'Aumeries
Technical & hardware support : Manuel Goepfert
Assistance : Marc-Olivier Méhu

Contact : metmap@orbifly.com




SOURCES & CREDITS :

   NOAA       Earth
Advisory